sensor_id;sensor_type;location;lat;lon;timestamp;P1;durP1;ratioP1;P2;durP2;ratioP2
62353;SDS011;48391;49.184;2.418;2023-03-14T00:02:20;5.95;;;1.45;;
62353;SDS011;48391;49.184;2.418;2023-03-14T00:04:46;4.97;;;1.10;;
62353;SDS011;48391;49.184;2.418;2023-03-14T00:07:13;5.53;;;0.80;;
62353;SDS011;48391;49.184;2.418;2023-03-14T00:09:39;4.75;;;1.73;;
62353;SDS011;48391;49.184;2.418;2023-03-14T00:12:05;5.30;;;1.35;;
62353;SDS011;48391;49.184;2.418;2023-03-14T00:14:32;7.00;;;1.75;;
62353;SDS011;48391;49.184;2.418;2023-03-14T00:16:58;7.13;;;1.77;;
62353;SDS011;48391;49.184;2.418;2023-03-14T00:19:24;4.00;;;1.33;;
62353;SDS011;48391;49.184;2.418;2023-03-14T00:21:51;5.10;;;1.30;;
62353;SDS011;48391;49.184;2.418;2023-03-14T00:24:16;6.57;;;0.93;;
62353;SDS011;48391;49.184;2.418;2023-03-14T00:26:42;3.17;;;1.38;;
62353;SDS011;48391;49.184;2.418;2023-03-14T00:29:08;4.65;;;0.90;;
62353;SDS011;48391;49.184;2.418;2023-03-14T00:31:35;5.05;;;1.23;;
62353;SDS011;48391;49.184;2.418;2023-03-14T00:34:02;4.53;;;1.35;;
62353;SDS011;48391;49.184;2.418;2023-03-14T00:36:28;2.67;;;0.70;;
62353;SDS011;48391;49.184;2.418;2023-03-14T00:38:54;1.63;;;0.95;;
62353;SDS011;48391;49.184;2.418;2023-03-14T00:41:21;3.17;;;0.93;;
62353;SDS011;48391;49.184;2.418;2023-03-14T00:43:47;5.07;;;1.15;;
62353;SDS011;48391;49.184;2.418;2023-03-14T00:46:13;2.10;;;0.70;;
62353;SDS011;48391;49.184;2.418;2023-03-14T00:48:39;2.10;;;0.70;;
62353;SDS011;48391;49.184;2.418;2023-03-14T00:51:06;5.65;;;1.50;;
62353;SDS011;48391;49.184;2.418;2023-03-14T00:53:35;3.22;;;0.63;;
62353;SDS011;48391;49.184;2.418;2023-03-14T00:56:03;4.97;;;0.90;;
62353;SDS011;48391;49.184;2.418;2023-03-14T00:58:29;2.28;;;0.80;;
62353;SDS011;48391;49.184;2.418;2023-03-14T01:00:55;2.05;;;0.47;;
62353;SDS011;48391;49.184;2.418;2023-03-14T01:03:21;2.80;;;0.60;;
62353;SDS011;48391;49.184;2.418;2023-03-14T01:05:49;3.25;;;1.17;;
62353;SDS011;48391;49.184;2.418;2023-03-14T01:08:15;2.00;;;0.50;;
62353;SDS011;48391;49.184;2.418;2023-03-14T01:10:41;1.75;;;0.50;;
62353;SDS011;48391;49.184;2.418;2023-03-14T01:13:08;1.65;;;0.35;;
62353;SDS011;48391;49.184;2.418;2023-03-14T01:15:34;1.48;;;0.32;;
62353;SDS011;48391;49.184;2.418;2023-03-14T01:18:01;2.25;;;0.52;;
62353;SDS011;48391;49.184;2.418;2023-03-14T01:20:27;1.17;;;0.30;;
62353;SDS011;48391;49.184;2.418;2023-03-14T01:22:53;1.35;;;0.40;;
62353;SDS011;48391;49.184;2.418;2023-03-14T01:25:19;1.00;;;0.63;;
62353;SDS011;48391;49.184;2.418;2023-03-14T01:27:45;0.57;;;0.40;;
62353;SDS011;48391;49.184;2.418;2023-03-14T01:30:11;5.45;;;0.90;;
62353;SDS011;48391;49.184;2.418;2023-03-14T01:32:37;1.85;;;0.38;;
62353;SDS011;48391;49.184;2.418;2023-03-14T01:35:04;0.98;;;0.40;;
62353;SDS011;48391;49.184;2.418;2023-03-14T01:37:30;2.20;;;1.10;;
62353;SDS011;48391;49.184;2.418;2023-03-14T01:39:56;1.67;;;0.30;;
62353;SDS011;48391;49.184;2.418;2023-03-14T01:42:22;2.33;;;0.40;;
62353;SDS011;48391;49.184;2.418;2023-03-14T01:47:17;1.30;;;0.35;;
62353;SDS011;48391;49.184;2.418;2023-03-14T01:49:44;1.00;;;0.28;;
62353;SDS011;48391;49.184;2.418;2023-03-14T01:52:13;3.20;;;0.85;;
62353;SDS011;48391;49.184;2.418;2023-03-14T01:57:17;7.07;;;1.38;;
62353;SDS011;48391;49.184;2.418;2023-03-14T01:59:49;3.53;;;1.48;;
62353;SDS011;48391;49.184;2.418;2023-03-14T02:02:16;2.92;;;0.93;;
62353;SDS011;48391;49.184;2.418;2023-03-14T02:04:42;2.67;;;0.65;;
62353;SDS011;48391;49.184;2.418;2023-03-14T02:09:44;2.85;;;0.50;;
62353;SDS011;48391;49.184;2.418;2023-03-14T02:12:11;2.55;;;0.40;;
62353;SDS011;48391;49.184;2.418;2023-03-14T02:14:38;2.03;;;0.50;;
62353;SDS011;48391;49.184;2.418;2023-03-14T02:17:05;1.42;;;0.98;;
62353;SDS011;48391;49.184;2.418;2023-03-14T02:19:46;3.00;;;0.43;;
62353;SDS011;48391;49.184;2.418;2023-03-14T02:22:16;5.57;;;1.38;;
62353;SDS011;48391;49.184;2.418;2023-03-14T02:29:35;1.40;;;0.43;;
62353;SDS011;48391;49.184;2.418;2023-03-14T02:32:02;1.27;;;0.43;;
62353;SDS011;48391;49.184;2.418;2023-03-14T02:34:28;3.65;;;0.60;;
62353;SDS011;48391;49.184;2.418;2023-03-14T02:36:56;2.80;;;0.35;;
62353;SDS011;48391;49.184;2.418;2023-03-14T02:39:24;3.03;;;0.57;;
62353;SDS011;48391;49.184;2.418;2023-03-14T02:41:53;3.25;;;0.63;;
62353;SDS011;48391;49.184;2.418;2023-03-14T02:44:19;4.05;;;0.63;;
62353;SDS011;48391;49.184;2.418;2023-03-14T02:46:45;5.32;;;0.82;;
62353;SDS011;48391;49.184;2.418;2023-03-14T02:49:12;7.97;;;1.13;;
62353;SDS011;48391;49.184;2.418;2023-03-14T02:51:39;2.20;;;0.52;;
62353;SDS011;48391;49.184;2.418;2023-03-14T02:54:05;3.45;;;1.20;;
62353;SDS011;48391;49.184;2.418;2023-03-14T02:56:32;3.72;;;0.73;;
62353;SDS011;48391;49.184;2.418;2023-03-14T02:58:58;1.92;;;0.20;;
62353;SDS011;48391;49.184;2.418;2023-03-14T03:01:24;7.18;;;0.95;;
62353;SDS011;48391;49.184;2.418;2023-03-14T03:03:50;3.67;;;1.05;;
62353;SDS011;48391;49.184;2.418;2023-03-14T03:06:16;1.35;;;0.30;;
62353;SDS011;48391;49.184;2.418;2023-03-14T03:08:42;1.50;;;0.25;;
62353;SDS011;48391;49.184;2.418;2023-03-14T03:11:08;2.25;;;0.93;;
62353;SDS011;48391;49.184;2.418;2023-03-14T03:13:34;2.83;;;0.47;;
62353;SDS011;48391;49.184;2.418;2023-03-14T03:16:00;1.35;;;0.17;;
62353;SDS011;48391;49.184;2.418;2023-03-14T03:18:26;1.95;;;0.82;;
62353;SDS011;48391;49.184;2.418;2023-03-14T03:20:52;1.13;;;0.57;;
62353;SDS011;48391;49.184;2.418;2023-03-14T03:23:18;1.05;;;0.30;;
62353;SDS011;48391;49.184;2.418;2023-03-14T03:25:48;0.75;;;0.10;;
62353;SDS011;48391;49.184;2.418;2023-03-14T03:28:14;0.30;;;0.10;;
62353;SDS011;48391;49.184;2.418;2023-03-14T03:30:41;0.55;;;0.00;;
62353;SDS011;48391;49.184;2.418;2023-03-14T03:33:07;2.22;;;0.65;;
62353;SDS011;48391;49.184;2.418;2023-03-14T03:35:33;1.80;;;0.30;;
62353;SDS011;48391;49.184;2.418;2023-03-14T03:37:59;2.30;;;0.45;;
62353;SDS011;48391;49.184;2.418;2023-03-14T03:40:25;0.63;;;0.08;;
62353;SDS011;48391;49.184;2.418;2023-03-14T03:42:51;0.75;;;0.00;;
62353;SDS011;48391;49.184;2.418;2023-03-14T03:45:17;1.10;;;0.10;;
62353;SDS011;48391;49.184;2.418;2023-03-14T03:47:43;0.95;;;0.30;;
62353;SDS011;48391;49.184;2.418;2023-03-14T03:50:09;0.22;;;0.20;;
62353;SDS011;48391;49.184;2.418;2023-03-14T03:52:35;1.55;;;0.40;;
62353;SDS011;48391;49.184;2.418;2023-03-14T03:55:02;0.10;;;0.00;;
62353;SDS011;48391;49.184;2.418;2023-03-14T03:57:28;1.40;;;0.30;;
62353;SDS011;48391;49.184;2.418;2023-03-14T03:59:54;0.40;;;0.30;;
62353;SDS011;48391;49.184;2.418;2023-03-14T04:02:20;1.50;;;0.10;;
62353;SDS011;48391;49.184;2.418;2023-03-14T04:04:46;0.32;;;0.03;;
62353;SDS011;48391;49.184;2.418;2023-03-14T04:07:12;1.70;;;0.10;;
62353;SDS011;48391;49.184;2.418;2023-03-14T04:09:39;1.75;;;0.40;;
62353;SDS011;48391;49.184;2.418;2023-03-14T04:12:05;0.28;;;0.13;;
62353;SDS011;48391;49.184;2.418;2023-03-14T04:14:31;0.20;;;0.10;;
62353;SDS011;48391;49.184;2.418;2023-03-14T04:16:57;1.70;;;0.05;;
62353;SDS011;48391;49.184;2.418;2023-03-14T04:19:23;0.10;;;0.00;;
62353;SDS011;48391;49.184;2.418;2023-03-14T04:21:49;0.30;;;0.00;;
62353;SDS011;48391;49.184;2.418;2023-03-14T04:24:15;0.25;;;0.10;;
62353;SDS011;48391;49.184;2.418;2023-03-14T04:26:41;0.60;;;0.00;;
62353;SDS011;48391;49.184;2.418;2023-03-14T04:29:07;0.90;;;0.00;;
62353;SDS011;48391;49.184;2.418;2023-03-14T04:31:33;0.68;;;0.10;;
62353;SDS011;48391;49.184;2.418;2023-03-14T04:33:59;0.40;;;0.05;;
62353;SDS011;48391;49.184;2.418;2023-03-14T04:36:25;0.08;;;0.00;;
62353;SDS011;48391;49.184;2.418;2023-03-14T04:38:51;0.20;;;0.20;;
62353;SDS011;48391;49.184;2.418;2023-03-14T04:41:17;0.45;;;0.00;;
62353;SDS011;48391;49.184;2.418;2023-03-14T04:43:43;1.00;;;0.20;;
62353;SDS011;48391;49.184;2.418;2023-03-14T04:46:09;0.03;;;0.03;;
62353;SDS011;48391;49.184;2.418;2023-03-14T04:48:35;0.98;;;0.10;;
62353;SDS011;48391;49.184;2.418;2023-03-14T04:51:02;0.50;;;0.28;;
62353;SDS011;48391;49.184;2.418;2023-03-14T04:53:28;0.20;;;0.20;;
62353;SDS011;48391;49.184;2.418;2023-03-14T04:55:55;0.10;;;0.10;;
62353;SDS011;48391;49.184;2.418;2023-03-14T04:58:22;1.48;;;0.30;;
62353;SDS011;48391;49.184;2.418;2023-03-14T05:00:48;1.75;;;0.10;;
62353;SDS011;48391;49.184;2.418;2023-03-14T05:03:15;2.60;;;0.20;;
62353;SDS011;48391;49.184;2.418;2023-03-14T05:05:41;3.30;;;0.52;;
62353;SDS011;48391;49.184;2.418;2023-03-14T05:08:07;0.47;;;0.00;;
62353;SDS011;48391;49.184;2.418;2023-03-14T05:10:33;1.52;;;0.60;;
62353;SDS011;48391;49.184;2.418;2023-03-14T05:12:59;1.38;;;0.25;;
62353;SDS011;48391;49.184;2.418;2023-03-14T05:15:25;1.88;;;0.22;;
62353;SDS011;48391;49.184;2.418;2023-03-14T05:17:51;1.92;;;0.32;;
62353;SDS011;48391;49.184;2.418;2023-03-14T05:20:18;0.90;;;0.25;;
62353;SDS011;48391;49.184;2.418;2023-03-14T05:22:44;1.23;;;0.57;;
62353;SDS011;48391;49.184;2.418;2023-03-14T05:25:10;3.13;;;0.50;;
62353;SDS011;48391;49.184;2.418;2023-03-14T05:27:36;1.88;;;0.45;;
62353;SDS011;48391;49.184;2.418;2023-03-14T05:30:03;0.77;;;0.30;;
62353;SDS011;48391;49.184;2.418;2023-03-14T05:32:30;3.05;;;0.40;;
62353;SDS011;48391;49.184;2.418;2023-03-14T05:34:56;1.25;;;0.28;;
62353;SDS011;48391;49.184;2.418;2023-03-14T05:37:24;2.42;;;1.17;;
62353;SDS011;48391;49.184;2.418;2023-03-14T05:39:51;0.98;;;0.22;;
62353;SDS011;48391;49.184;2.418;2023-03-14T05:42:17;5.10;;;1.02;;
62353;SDS011;48391;49.184;2.418;2023-03-14T05:44:43;2.22;;;0.40;;
62353;SDS011;48391;49.184;2.418;2023-03-14T05:47:09;0.77;;;0.35;;
62353;SDS011;48391;49.184;2.418;2023-03-14T05:49:35;1.55;;;0.00;;
62353;SDS011;48391;49.184;2.418;2023-03-14T05:52:01;1.45;;;0.30;;
62353;SDS011;48391;49.184;2.418;2023-03-14T05:54:27;1.17;;;0.10;;
62353;SDS011;48391;49.184;2.418;2023-03-14T05:56:53;0.55;;;0.17;;
62353;SDS011;48391;49.184;2.418;2023-03-14T05:59:19;1.50;;;0.20;;
62353;SDS011;48391;49.184;2.418;2023-03-14T06:01:45;2.92;;;0.20;;
62353;SDS011;48391;49.184;2.418;2023-03-14T06:04:11;1.65;;;0.10;;
62353;SDS011;48391;49.184;2.418;2023-03-14T06:06:38;1.17;;;0.20;;
62353;SDS011;48391;49.184;2.418;2023-03-14T06:09:04;2.55;;;0.28;;
62353;SDS011;48391;49.184;2.418;2023-03-14T06:11:30;2.58;;;0.43;;
62353;SDS011;48391;49.184;2.418;2023-03-14T06:13:56;1.05;;;0.52;;
62353;SDS011;48391;49.184;2.418;2023-03-14T06:16:22;3.58;;;1.08;;
62353;SDS011;48391;49.184;2.418;2023-03-14T06:18:48;2.55;;;0.17;;
62353;SDS011;48391;49.184;2.418;2023-03-14T06:21:14;0.93;;;0.68;;
62353;SDS011;48391;49.184;2.418;2023-03-14T06:23:40;1.80;;;0.38;;
62353;SDS011;48391;49.184;2.418;2023-03-14T06:26:06;1.05;;;0.10;;
62353;SDS011;48391;49.184;2.418;2023-03-14T06:28:32;2.30;;;0.15;;
62353;SDS011;48391;49.184;2.418;2023-03-14T06:30:59;1.73;;;0.20;;
62353;SDS011;48391;49.184;2.418;2023-03-14T06:33:25;0.75;;;0.30;;
62353;SDS011;48391;49.184;2.418;2023-03-14T06:35:51;0.88;;;0.43;;
62353;SDS011;48391;49.184;2.418;2023-03-14T06:38:17;1.85;;;0.30;;
62353;SDS011;48391;49.184;2.418;2023-03-14T06:40:43;2.17;;;0.57;;
62353;SDS011;48391;49.184;2.418;2023-03-14T06:43:10;5.97;;;0.88;;
62353;SDS011;48391;49.184;2.418;2023-03-14T06:45:36;2.65;;;0.22;;
62353;SDS011;48391;49.184;2.418;2023-03-14T06:48:02;4.15;;;0.90;;
62353;SDS011;48391;49.184;2.418;2023-03-14T06:50:28;3.15;;;0.82;;
62353;SDS011;48391;49.184;2.418;2023-03-14T06:52:54;4.38;;;1.35;;
62353;SDS011;48391;49.184;2.418;2023-03-14T06:55:20;3.85;;;1.50;;
62353;SDS011;48391;49.184;2.418;2023-03-14T06:57:46;8.50;;;2.38;;
62353;SDS011;48391;49.184;2.418;2023-03-14T07:00:12;6.68;;;1.23;;
62353;SDS011;48391;49.184;2.418;2023-03-14T07:02:39;8.00;;;1.58;;
62353;SDS011;48391;49.184;2.418;2023-03-14T07:05:06;9.85;;;1.90;;
62353;SDS011;48391;49.184;2.418;2023-03-14T07:07:32;6.75;;;2.47;;
62353;SDS011;48391;49.184;2.418;2023-03-14T07:09:58;11.25;;;2.22;;
62353;SDS011;48391;49.184;2.418;2023-03-14T07:12:24;6.30;;;1.10;;
62353;SDS011;48391;49.184;2.418;2023-03-14T07:14:50;6.10;;;1.50;;
62353;SDS011;48391;49.184;2.418;2023-03-14T07:17:16;3.00;;;1.35;;
62353;SDS011;48391;49.184;2.418;2023-03-14T07:19:42;7.65;;;1.50;;
62353;SDS011;48391;49.184;2.418;2023-03-14T07:22:08;4.25;;;1.02;;
62353;SDS011;48391;49.184;2.418;2023-03-14T07:24:34;5.95;;;1.58;;
62353;SDS011;48391;49.184;2.418;2023-03-14T07:27:00;3.38;;;0.88;;
62353;SDS011;48391;49.184;2.418;2023-03-14T07:29:26;3.47;;;1.38;;
62353;SDS011;48391;49.184;2.418;2023-03-14T07:31:52;3.03;;;1.08;;
62353;SDS011;48391;49.184;2.418;2023-03-14T07:34:18;3.45;;;1.13;;
62353;SDS011;48391;49.184;2.418;2023-03-14T07:36:44;5.63;;;1.90;;
62353;SDS011;48391;49.184;2.418;2023-03-14T07:39:10;9.73;;;1.85;;
62353;SDS011;48391;49.184;2.418;2023-03-14T07:41:36;3.80;;;1.42;;
62353;SDS011;48391;49.184;2.418;2023-03-14T07:44:02;6.20;;;1.27;;
62353;SDS011;48391;49.184;2.418;2023-03-14T07:46:28;7.90;;;1.70;;
62353;SDS011;48391;49.184;2.418;2023-03-14T07:48:54;7.03;;;1.23;;
62353;SDS011;48391;49.184;2.418;2023-03-14T07:51:20;5.13;;;1.73;;
62353;SDS011;48391;49.184;2.418;2023-03-14T07:53:46;8.60;;;2.05;;
62353;SDS011;48391;49.184;2.418;2023-03-14T07:56:12;7.50;;;1.75;;
62353;SDS011;48391;49.184;2.418;2023-03-14T07:58:38;7.05;;;2.05;;
62353;SDS011;48391;49.184;2.418;2023-03-14T08:01:04;9.93;;;2.22;;
62353;SDS011;48391;49.184;2.418;2023-03-14T08:03:30;10.15;;;2.45;;
62353;SDS011;48391;49.184;2.418;2023-03-14T08:05:56;5.32;;;2.00;;
62353;SDS011;48391;49.184;2.418;2023-03-14T08:08:22;13.80;;;2.85;;
62353;SDS011;48391;49.184;2.418;2023-03-14T08:10:48;6.55;;;1.67;;
62353;SDS011;48391;49.184;2.418;2023-03-14T08:13:14;10.45;;;2.30;;
62353;SDS011;48391;49.184;2.418;2023-03-14T08:15:41;7.13;;;1.98;;
62353;SDS011;48391;49.184;2.418;2023-03-14T08:18:07;12.90;;;2.47;;
62353;SDS011;48391;49.184;2.418;2023-03-14T08:20:33;11.18;;;2.58;;
62353;SDS011;48391;49.184;2.418;2023-03-14T08:22:59;9.65;;;2.05;;
62353;SDS011;48391;49.184;2.418;2023-03-14T08:25:26;7.80;;;1.83;;
62353;SDS011;48391;49.184;2.418;2023-03-14T08:27:53;10.27;;;2.72;;
62353;SDS011;48391;49.184;2.418;2023-03-14T08:30:19;14.95;;;2.25;;
62353;SDS011;48391;49.184;2.418;2023-03-14T08:32:46;8.35;;;1.85;;
62353;SDS011;48391;49.184;2.418;2023-03-14T08:35:12;9.27;;;2.25;;
62353;SDS011;48391;49.184;2.418;2023-03-14T08:37:38;6.65;;;1.42;;
62353;SDS011;48391;49.184;2.418;2023-03-14T08:40:05;6.50;;;1.27;;
62353;SDS011;48391;49.184;2.418;2023-03-14T08:42:34;9.30;;;1.65;;
62353;SDS011;48391;49.184;2.418;2023-03-14T08:45:00;10.48;;;2.42;;
62353;SDS011;48391;49.184;2.418;2023-03-14T08:47:26;4.95;;;1.20;;
62353;SDS011;48391;49.184;2.418;2023-03-14T08:49:52;6.90;;;1.80;;
62353;SDS011;48391;49.184;2.418;2023-03-14T08:52:18;6.43;;;2.00;;
62353;SDS011;48391;49.184;2.418;2023-03-14T08:54:44;7.03;;;1.48;;
62353;SDS011;48391;49.184;2.418;2023-03-14T08:57:11;6.97;;;1.45;;
62353;SDS011;48391;49.184;2.418;2023-03-14T08:59:37;10.95;;;2.58;;
62353;SDS011;48391;49.184;2.418;2023-03-14T09:02:03;3.13;;;0.90;;
62353;SDS011;48391;49.184;2.418;2023-03-14T09:04:30;6.75;;;2.20;;
62353;SDS011;48391;49.184;2.418;2023-03-14T09:06:56;11.95;;;2.03;;
62353;SDS011;48391;49.184;2.418;2023-03-14T09:09:25;10.07;;;3.10;;
62353;SDS011;48391;49.184;2.418;2023-03-14T09:11:52;10.82;;;1.77;;
62353;SDS011;48391;49.184;2.418;2023-03-14T09:14:18;8.27;;;2.03;;
62353;SDS011;48391;49.184;2.418;2023-03-14T09:16:44;8.77;;;1.55;;
62353;SDS011;48391;49.184;2.418;2023-03-14T09:19:10;7.32;;;1.58;;
62353;SDS011;48391;49.184;2.418;2023-03-14T09:21:36;8.73;;;1.88;;
62353;SDS011;48391;49.184;2.418;2023-03-14T09:24:04;5.88;;;1.73;;
62353;SDS011;48391;49.184;2.418;2023-03-14T09:26:30;2.75;;;1.05;;
62353;SDS011;48391;49.184;2.418;2023-03-14T09:28:56;4.60;;;0.80;;
62353;SDS011;48391;49.184;2.418;2023-03-14T09:31:22;1.95;;;0.50;;
62353;SDS011;48391;49.184;2.418;2023-03-14T09:33:48;0.73;;;0.13;;
62353;SDS011;48391;49.184;2.418;2023-03-14T09:36:15;2.60;;;0.60;;
62353;SDS011;48391;49.184;2.418;2023-03-14T09:38:41;1.75;;;0.40;;
62353;SDS011;48391;49.184;2.418;2023-03-14T09:41:26;6.15;;;1.38;;
62353;SDS011;48391;49.184;2.418;2023-03-14T09:43:57;2.90;;;0.30;;
62353;SDS011;48391;49.184;2.418;2023-03-14T09:46:25;2.53;;;0.47;;
62353;SDS011;48391;49.184;2.418;2023-03-14T09:48:52;2.15;;;0.50;;
62353;SDS011;48391;49.184;2.418;2023-03-14T09:51:18;4.30;;;0.55;;
62353;SDS011;48391;49.184;2.418;2023-03-14T09:53:48;4.03;;;0.43;;
62353;SDS011;48391;49.184;2.418;2023-03-14T09:56:28;5.18;;;0.70;;
62353;SDS011;48391;49.184;2.418;2023-03-14T09:58:56;4.88;;;1.38;;
62353;SDS011;48391;49.184;2.418;2023-03-14T10:01:24;4.47;;;0.70;;
62353;SDS011;48391;49.184;2.418;2023-03-14T10:03:50;2.50;;;0.75;;
62353;SDS011;48391;49.184;2.418;2023-03-14T10:06:19;2.78;;;0.75;;
62353;SDS011;48391;49.184;2.418;2023-03-14T10:08:45;2.40;;;0.38;;
62353;SDS011;48391;49.184;2.418;2023-03-14T10:11:15;4.47;;;0.82;;
62353;SDS011;48391;49.184;2.418;2023-03-14T10:16:31;4.22;;;0.75;;
62353;SDS011;48391;49.184;2.418;2023-03-14T10:19:06;3.92;;;0.73;;
62353;SDS011;48391;49.184;2.418;2023-03-14T10:22:12;2.05;;;0.65;;
62353;SDS011;48391;49.184;2.418;2023-03-14T10:29:27;3.10;;;0.30;;
62353;SDS011;48391;49.184;2.418;2023-03-14T10:34:28;2.28;;;0.22;;
62353;SDS011;48391;49.184;2.418;2023-03-14T10:39:27;1.10;;;0.68;;
62353;SDS011;48391;49.184;2.418;2023-03-14T10:42:01;1.55;;;0.28;;
62353;SDS011;48391;49.184;2.418;2023-03-14T10:44:28;2.40;;;0.65;;
62353;SDS011;48391;49.184;2.418;2023-03-14T10:47:00;2.17;;;0.55;;
62353;SDS011;48391;49.184;2.418;2023-03-14T10:49:31;2.50;;;0.90;;
62353;SDS011;48391;49.184;2.418;2023-03-14T10:54:45;1.90;;;0.80;;
62353;SDS011;48391;49.184;2.418;2023-03-14T10:57:12;2.22;;;0.60;;
62353;SDS011;48391;49.184;2.418;2023-03-14T10:59:39;7.50;;;0.50;;
62353;SDS011;48391;49.184;2.418;2023-03-14T11:07:11;1.60;;;0.40;;
62353;SDS011;48391;49.184;2.418;2023-03-14T11:14:41;1.85;;;0.80;;
62353;SDS011;48391;49.184;2.418;2023-03-14T11:22:34;3.90;;;0.60;;
62353;SDS011;48391;49.184;2.418;2023-03-14T11:25:06;1.50;;;0.93;;
62353;SDS011;48391;49.184;2.418;2023-03-14T11:27:46;1.88;;;0.63;;
62353;SDS011;48391;49.184;2.418;2023-03-14T11:32:50;2.92;;;0.73;;
62353;SDS011;48391;49.184;2.418;2023-03-14T11:37:51;2.22;;;0.70;;
62353;SDS011;48391;49.184;2.418;2023-03-14T11:40:23;8.10;;;0.50;;
62353;SDS011;48391;49.184;2.418;2023-03-14T11:42:53;5.18;;;0.88;;
62353;SDS011;48391;49.184;2.418;2023-03-14T11:45:26;2.20;;;0.70;;
62353;SDS011;48391;49.184;2.418;2023-03-14T11:50:52;1.83;;;0.70;;
62353;SDS011;48391;49.184;2.418;2023-03-14T11:53:36;5.55;;;0.60;;
62353;SDS011;48391;49.184;2.418;2023-03-14T11:56:08;3.25;;;1.30;;
62353;SDS011;48391;49.184;2.418;2023-03-14T11:58:36;3.42;;;0.85;;
62353;SDS011;48391;49.184;2.418;2023-03-14T12:01:06;4.55;;;0.52;;
62353;SDS011;48391;49.184;2.418;2023-03-14T12:03:49;1.33;;;0.60;;
62353;SDS011;48391;49.184;2.418;2023-03-14T12:06:22;5.05;;;1.20;;
62353;SDS011;48391;49.184;2.418;2023-03-14T12:08:53;2.55;;;0.30;;
62353;SDS011;48391;49.184;2.418;2023-03-14T12:16:43;4.57;;;1.17;;
62353;SDS011;48391;49.184;2.418;2023-03-14T12:21:54;2.45;;;0.70;;
62353;SDS011;48391;49.184;2.418;2023-03-14T12:24:26;5.20;;;1.48;;
62353;SDS011;48391;49.184;2.418;2023-03-14T12:29:18;2.47;;;0.22;;
62353;SDS011;48391;49.184;2.418;2023-03-14T12:34:40;2.28;;;0.50;;
62353;SDS011;48391;49.184;2.418;2023-03-14T12:37:12;2.30;;;0.20;;
62353;SDS011;48391;49.184;2.418;2023-03-14T12:39:45;2.88;;;1.15;;
62353;SDS011;48391;49.184;2.418;2023-03-14T12:44:39;1.58;;;0.38;;
62353;SDS011;48391;49.184;2.418;2023-03-14T12:49:48;0.43;;;0.25;;
62353;SDS011;48391;49.184;2.418;2023-03-14T12:52:21;2.00;;;0.20;;
62353;SDS011;48391;49.184;2.418;2023-03-14T12:59:52;1.95;;;0.65;;
62353;SDS011;48391;49.184;2.418;2023-03-14T13:02:41;0.13;;;0.03;;
62353;SDS011;48391;49.184;2.418;2023-03-14T13:05:23;1.95;;;0.52;;
62353;SDS011;48391;49.184;2.418;2023-03-14T13:10:26;0.55;;;0.30;;
62353;SDS011;48391;49.184;2.418;2023-03-14T13:13:15;1.55;;;0.30;;
62353;SDS011;48391;49.184;2.418;2023-03-14T13:15:43;0.80;;;0.20;;
62353;SDS011;48391;49.184;2.418;2023-03-14T13:20:47;1.42;;;0.25;;
62353;SDS011;48391;49.184;2.418;2023-03-14T13:23:31;0.75;;;0.32;;
62353;SDS011;48391;49.184;2.418;2023-03-14T13:25:58;2.22;;;0.30;;
62353;SDS011;48391;49.184;2.418;2023-03-14T13:28:25;1.00;;;0.30;;
62353;SDS011;48391;49.184;2.418;2023-03-14T13:30:54;0.82;;;0.22;;
62353;SDS011;48391;49.184;2.418;2023-03-14T13:33:21;1.93;;;0.70;;
62353;SDS011;48391;49.184;2.418;2023-03-14T13:35:55;1.05;;;0.40;;
62353;SDS011;48391;49.184;2.418;2023-03-14T13:38:23;1.40;;;0.20;;
62353;SDS011;48391;49.184;2.418;2023-03-14T13:40:50;1.35;;;0.30;;
62353;SDS011;48391;49.184;2.418;2023-03-14T13:43:18;4.03;;;0.45;;
62353;SDS011;48391;49.184;2.418;2023-03-14T13:48:11;0.80;;;0.43;;
62353;SDS011;48391;49.184;2.418;2023-03-14T13:50:43;3.38;;;1.58;;
62353;SDS011;48391;49.184;2.418;2023-03-14T13:53:11;3.42;;;0.55;;
62353;SDS011;48391;49.184;2.418;2023-03-14T13:55:38;0.98;;;0.20;;
62353;SDS011;48391;49.184;2.418;2023-03-14T13:58:04;1.95;;;0.50;;
62353;SDS011;48391;49.184;2.418;2023-03-14T14:00:30;4.15;;;0.70;;
62353;SDS011;48391;49.184;2.418;2023-03-14T14:02:56;1.80;;;0.88;;
62353;SDS011;48391;49.184;2.418;2023-03-14T14:05:25;1.48;;;0.50;;
62353;SDS011;48391;49.184;2.418;2023-03-14T14:07:52;3.90;;;0.77;;
62353;SDS011;48391;49.184;2.418;2023-03-14T14:10:19;2.30;;;0.50;;
62353;SDS011;48391;49.184;2.418;2023-03-14T14:15:26;1.13;;;0.52;;
62353;SDS011;48391;49.184;2.418;2023-03-14T14:17:56;3.35;;;1.02;;
62353;SDS011;48391;49.184;2.418;2023-03-14T14:22:51;1.80;;;0.50;;
62353;SDS011;48391;49.184;2.418;2023-03-14T14:25:18;3.30;;;0.40;;
62353;SDS011;48391;49.184;2.418;2023-03-14T14:27:46;5.40;;;0.57;;
62353;SDS011;48391;49.184;2.418;2023-03-14T14:32:43;2.10;;;0.70;;
62353;SDS011;48391;49.184;2.418;2023-03-14T14:35:10;5.78;;;0.90;;
62353;SDS011;48391;49.184;2.418;2023-03-14T14:37:43;0.98;;;0.40;;
62353;SDS011;48391;49.184;2.418;2023-03-14T14:40:14;1.08;;;0.20;;
62353;SDS011;48391;49.184;2.418;2023-03-14T14:42:41;0.75;;;0.15;;
62353;SDS011;48391;49.184;2.418;2023-03-14T14:45:12;1.15;;;0.32;;
62353;SDS011;48391;49.184;2.418;2023-03-14T14:47:48;3.50;;;0.50;;
62353;SDS011;48391;49.184;2.418;2023-03-14T14:52:46;0.55;;;0.40;;
62353;SDS011;48391;49.184;2.418;2023-03-14T14:55:17;0.82;;;0.13;;
62353;SDS011;48391;49.184;2.418;2023-03-14T14:57:51;1.23;;;0.10;;
62353;SDS011;48391;49.184;2.418;2023-03-14T15:00:21;3.58;;;0.65;;
62353;SDS011;48391;49.184;2.418;2023-03-14T15:02:49;0.93;;;0.30;;
62353;SDS011;48391;49.184;2.418;2023-03-14T15:05:23;2.33;;;0.30;;
62353;SDS011;48391;49.184;2.418;2023-03-14T15:07:50;0.55;;;0.10;;
62353;SDS011;48391;49.184;2.418;2023-03-14T15:10:17;1.88;;;0.52;;
62353;SDS011;48391;49.184;2.418;2023-03-14T15:12:44;4.72;;;0.63;;
62353;SDS011;48391;49.184;2.418;2023-03-14T15:15:10;2.17;;;0.52;;
62353;SDS011;48391;49.184;2.418;2023-03-14T15:17:37;0.80;;;0.25;;
62353;SDS011;48391;49.184;2.418;2023-03-14T15:20:09;2.25;;;0.32;;
62353;SDS011;48391;49.184;2.418;2023-03-14T15:22:35;3.05;;;0.57;;
62353;SDS011;48391;49.184;2.418;2023-03-14T15:25:01;1.17;;;0.50;;
62353;SDS011;48391;49.184;2.418;2023-03-14T15:27:28;1.48;;;0.28;;
62353;SDS011;48391;49.184;2.418;2023-03-14T15:29:54;3.92;;;0.65;;
62353;SDS011;48391;49.184;2.418;2023-03-14T15:32:20;1.40;;;0.52;;
62353;SDS011;48391;49.184;2.418;2023-03-14T15:34:46;0.63;;;0.38;;
62353;SDS011;48391;49.184;2.418;2023-03-14T15:37:13;1.90;;;0.73;;
62353;SDS011;48391;49.184;2.418;2023-03-14T15:39:40;2.20;;;1.02;;
62353;SDS011;48391;49.184;2.418;2023-03-14T15:42:06;2.25;;;0.70;;
62353;SDS011;48391;49.184;2.418;2023-03-14T15:44:32;3.60;;;0.40;;
62353;SDS011;48391;49.184;2.418;2023-03-14T15:46:58;4.25;;;0.45;;
62353;SDS011;48391;49.184;2.418;2023-03-14T15:49:25;2.35;;;0.52;;
62353;SDS011;48391;49.184;2.418;2023-03-14T15:51:51;1.08;;;0.20;;
62353;SDS011;48391;49.184;2.418;2023-03-14T15:54:17;2.20;;;0.30;;
62353;SDS011;48391;49.184;2.418;2023-03-14T15:56:43;2.83;;;0.40;;
62353;SDS011;48391;49.184;2.418;2023-03-14T15:59:09;1.88;;;0.25;;
62353;SDS011;48391;49.184;2.418;2023-03-14T16:01:35;1.55;;;0.40;;
62353;SDS011;48391;49.184;2.418;2023-03-14T16:04:01;0.73;;;0.38;;
62353;SDS011;48391;49.184;2.418;2023-03-14T16:06:27;1.42;;;0.40;;
62353;SDS011;48391;49.184;2.418;2023-03-14T16:08:55;3.15;;;1.17;;
62353;SDS011;48391;49.184;2.418;2023-03-14T16:11:21;2.00;;;1.08;;
62353;SDS011;48391;49.184;2.418;2023-03-14T16:13:47;0.90;;;0.32;;
62353;SDS011;48391;49.184;2.418;2023-03-14T16:16:14;2.42;;;0.63;;
62353;SDS011;48391;49.184;2.418;2023-03-14T16:18:40;1.02;;;0.52;;
62353;SDS011;48391;49.184;2.418;2023-03-14T16:21:07;1.55;;;0.57;;
62353;SDS011;48391;49.184;2.418;2023-03-14T16:23:33;0.22;;;0.22;;